sensor_id;sensor_type;location;lat;lon;timestamp;P1;durP1;ratioP1;P2;durP2;ratioP2
80136;SDS011;69466;55.948;37.484;2024-01-15T00:01:43;20.50;;;9.95;;
80136;SDS011;69466;55.948;37.484;2024-01-15T00:04:10;16.58;;;9.73;;
80136;SDS011;69466;55.948;37.484;2024-01-15T00:06:36;21.77;;;10.60;;
80136;SDS011;69466;55.948;37.484;2024-01-15T00:09:02;20.85;;;10.27;;
80136;SDS011;69466;55.948;37.484;2024-01-15T00:11:28;23.27;;;10.57;;
80136;SDS011;69466;55.948;37.484;2024-01-15T00:13:53;21.20;;;10.13;;
80136;SDS011;69466;55.948;37.484;2024-01-15T00:16:19;19.83;;;10.25;;
80136;SDS011;69466;55.948;37.484;2024-01-15T00:18:45;22.17;;;9.35;;
80136;SDS011;69466;55.948;37.484;2024-01-15T00:21:11;22.08;;;9.85;;
80136;SDS011;69466;55.948;37.484;2024-01-15T00:23:39;20.80;;;9.88;;
80136;SDS011;69466;55.948;37.484;2024-01-15T00:26:08;22.58;;;11.02;;
80136;SDS011;69466;55.948;37.484;2024-01-15T00:28:34;27.95;;;11.38;;
80136;SDS011;69466;55.948;37.484;2024-01-15T00:31:01;19.63;;;11.15;;
80136;SDS011;69466;55.948;37.484;2024-01-15T00:33:27;19.92;;;10.38;;
80136;SDS011;69466;55.948;37.484;2024-01-15T00:35:53;19.52;;;9.55;;
80136;SDS011;69466;55.948;37.484;2024-01-15T00:38:19;19.85;;;8.65;;
80136;SDS011;69466;55.948;37.484;2024-01-15T00:40:45;18.05;;;9.48;;
80136;SDS011;69466;55.948;37.484;2024-01-15T00:43:11;19.73;;;9.02;;
80136;SDS011;69466;55.948;37.484;2024-01-15T00:45:37;25.10;;;10.07;;
80136;SDS011;69466;55.948;37.484;2024-01-15T00:48:03;18.77;;;10.00;;
80136;SDS011;69466;55.948;37.484;2024-01-15T00:50:30;20.55;;;10.15;;
80136;SDS011;69466;55.948;37.484;2024-01-15T00:52:56;22.23;;;10.63;;
80136;SDS011;69466;55.948;37.484;2024-01-15T00:55:22;22.70;;;11.13;;
80136;SDS011;69466;55.948;37.484;2024-01-15T00:57:49;23.75;;;11.20;;
80136;SDS011;69466;55.948;37.484;2024-01-15T01:00:15;19.05;;;9.93;;
80136;SDS011;69466;55.948;37.484;2024-01-15T01:02:42;20.17;;;10.60;;
80136;SDS011;69466;55.948;37.484;2024-01-15T01:05:09;22.00;;;11.20;;
80136;SDS011;69466;55.948;37.484;2024-01-15T01:07:35;21.58;;;10.13;;
80136;SDS011;69466;55.948;37.484;2024-01-15T01:10:02;21.50;;;10.82;;
80136;SDS011;69466;55.948;37.484;2024-01-15T01:12:28;18.23;;;9.43;;
80136;SDS011;69466;55.948;37.484;2024-01-15T01:14:55;19.13;;;11.23;;
80136;SDS011;69466;55.948;37.484;2024-01-15T01:17:21;21.50;;;10.95;;
80136;SDS011;69466;55.948;37.484;2024-01-15T01:19:48;25.45;;;10.65;;
80136;SDS011;69466;55.948;37.484;2024-01-15T01:22:16;22.58;;;10.38;;
80136;SDS011;69466;55.948;37.484;2024-01-15T01:24:42;22.10;;;10.93;;
80136;SDS011;69466;55.948;37.484;2024-01-15T01:27:08;23.27;;;13.00;;
80136;SDS011;69466;55.948;37.484;2024-01-15T01:29:35;21.63;;;10.90;;
80136;SDS011;69466;55.948;37.484;2024-01-15T01:32:01;20.80;;;9.98;;
80136;SDS011;69466;55.948;37.484;2024-01-15T01:34:27;21.33;;;10.40;;
80136;SDS011;69466;55.948;37.484;2024-01-15T01:36:53;24.23;;;11.18;;
80136;SDS011;69466;55.948;37.484;2024-01-15T01:39:19;22.58;;;12.43;;
80136;SDS011;69466;55.948;37.484;2024-01-15T01:41:45;22.63;;;12.02;;
80136;SDS011;69466;55.948;37.484;2024-01-15T01:44:11;21.52;;;10.63;;
80136;SDS011;69466;55.948;37.484;2024-01-15T01:46:37;22.88;;;12.02;;
80136;SDS011;69466;55.948;37.484;2024-01-15T01:49:06;25.00;;;11.52;;
80136;SDS011;69466;55.948;37.484;2024-01-15T01:51:34;26.02;;;11.40;;
80136;SDS011;69466;55.948;37.484;2024-01-15T01:54:03;23.88;;;11.43;;
80136;SDS011;69466;55.948;37.484;2024-01-15T01:56:30;25.17;;;11.18;;
80136;SDS011;69466;55.948;37.484;2024-01-15T01:58:56;23.13;;;11.80;;
80136;SDS011;69466;55.948;37.484;2024-01-15T02:01:22;25.83;;;12.27;;
80136;SDS011;69466;55.948;37.484;2024-01-15T02:03:48;23.58;;;11.15;;
80136;SDS011;69466;55.948;37.484;2024-01-15T02:06:14;26.58;;;13.18;;
80136;SDS011;69466;55.948;37.484;2024-01-15T02:08:40;25.80;;;12.48;;
80136;SDS011;69466;55.948;37.484;2024-01-15T02:11:09;26.38;;;13.02;;
80136;SDS011;69466;55.948;37.484;2024-01-15T02:13:35;23.20;;;12.80;;
80136;SDS011;69466;55.948;37.484;2024-01-15T02:16:01;21.23;;;12.20;;
80136;SDS011;69466;55.948;37.484;2024-01-15T02:18:27;25.73;;;12.02;;
80136;SDS011;69466;55.948;37.484;2024-01-15T02:21:13;19.85;;;11.05;;
80136;SDS011;69466;55.948;37.484;2024-01-15T02:23:39;24.80;;;11.43;;
80136;SDS011;69466;55.948;37.484;2024-01-15T02:26:05;23.52;;;10.60;;
80136;SDS011;69466;55.948;37.484;2024-01-15T02:28:34;26.95;;;12.80;;
80136;SDS011;69466;55.948;37.484;2024-01-15T02:31:01;26.05;;;11.70;;
80136;SDS011;69466;55.948;37.484;2024-01-15T02:33:26;25.05;;;12.02;;
80136;SDS011;69466;55.948;37.484;2024-01-15T02:35:52;24.92;;;11.45;;
80136;SDS011;69466;55.948;37.484;2024-01-15T02:38:19;24.58;;;11.32;;
80136;SDS011;69466;55.948;37.484;2024-01-15T02:40:47;24.88;;;11.90;;
80136;SDS011;69466;55.948;37.484;2024-01-15T02:43:13;24.13;;;11.95;;
80136;SDS011;69466;55.948;37.484;2024-01-15T02:45:39;18.67;;;11.18;;
80136;SDS011;69466;55.948;37.484;2024-01-15T02:48:05;23.77;;;11.07;;
80136;SDS011;69466;55.948;37.484;2024-01-15T02:50:31;28.17;;;11.98;;
80136;SDS011;69466;55.948;37.484;2024-01-15T02:52:57;21.45;;;10.85;;
80136;SDS011;69466;55.948;37.484;2024-01-15T02:55:23;27.13;;;13.40;;
80136;SDS011;69466;55.948;37.484;2024-01-15T02:57:50;28.35;;;13.00;;
80136;SDS011;69466;55.948;37.484;2024-01-15T03:00:17;21.27;;;10.88;;
80136;SDS011;69466;55.948;37.484;2024-01-15T03:02:44;27.10;;;13.57;;
80136;SDS011;69466;55.948;37.484;2024-01-15T03:05:11;24.33;;;12.75;;
80136;SDS011;69466;55.948;37.484;2024-01-15T03:07:37;26.17;;;11.77;;
80136;SDS011;69466;55.948;37.484;2024-01-15T03:10:07;22.42;;;13.55;;
80136;SDS011;69466;55.948;37.484;2024-01-15T03:12:33;23.77;;;12.48;;
80136;SDS011;69466;55.948;37.484;2024-01-15T03:14:59;25.45;;;13.57;;
80136;SDS011;69466;55.948;37.484;2024-01-15T03:17:25;26.17;;;12.45;;
80136;SDS011;69466;55.948;37.484;2024-01-15T03:19:51;28.48;;;12.95;;
80136;SDS011;69466;55.948;37.484;2024-01-15T03:22:19;27.08;;;13.73;;
80136;SDS011;69466;55.948;37.484;2024-01-15T03:24:45;22.92;;;12.60;;
80136;SDS011;69466;55.948;37.484;2024-01-15T03:27:11;25.15;;;12.15;;
80136;SDS011;69466;55.948;37.484;2024-01-15T03:29:37;24.92;;;11.88;;
80136;SDS011;69466;55.948;37.484;2024-01-15T03:32:03;31.42;;;14.73;;
80136;SDS011;69466;55.948;37.484;2024-01-15T03:34:30;23.05;;;11.88;;
80136;SDS011;69466;55.948;37.484;2024-01-15T03:36:56;28.92;;;13.60;;
80136;SDS011;69466;55.948;37.484;2024-01-15T03:39:22;29.27;;;13.48;;
80136;SDS011;69466;55.948;37.484;2024-01-15T03:41:48;26.17;;;13.48;;
80136;SDS011;69466;55.948;37.484;2024-01-15T03:44:14;29.60;;;13.88;;
80136;SDS011;69466;55.948;37.484;2024-01-15T03:46:40;31.80;;;13.90;;
80136;SDS011;69466;55.948;37.484;2024-01-15T03:49:06;25.77;;;12.90;;
80136;SDS011;69466;55.948;37.484;2024-01-15T03:51:32;24.63;;;13.65;;
80136;SDS011;69466;55.948;37.484;2024-01-15T03:54:00;29.83;;;13.57;;
80136;SDS011;69466;55.948;37.484;2024-01-15T03:56:26;26.40;;;13.65;;
80136;SDS011;69466;55.948;37.484;2024-01-15T03:58:57;28.45;;;14.52;;
80136;SDS011;69466;55.948;37.484;2024-01-15T04:03:55;26.17;;;13.15;;
80136;SDS011;69466;55.948;37.484;2024-01-15T04:06:24;26.92;;;13.35;;
80136;SDS011;69466;55.948;37.484;2024-01-15T04:08:50;33.25;;;12.63;;
80136;SDS011;69466;55.948;37.484;2024-01-15T04:11:21;24.00;;;12.55;;
80136;SDS011;69466;55.948;37.484;2024-01-15T04:13:48;25.95;;;13.63;;
80136;SDS011;69466;55.948;37.484;2024-01-15T04:16:15;25.45;;;12.57;;
80136;SDS011;69466;55.948;37.484;2024-01-15T04:18:41;30.17;;;14.43;;
80136;SDS011;69466;55.948;37.484;2024-01-15T04:21:08;26.10;;;12.82;;
80136;SDS011;69466;55.948;37.484;2024-01-15T04:23:34;25.98;;;13.43;;
80136;SDS011;69466;55.948;37.484;2024-01-15T04:26:00;27.38;;;14.85;;
80136;SDS011;69466;55.948;37.484;2024-01-15T04:28:26;26.50;;;13.43;;
80136;SDS011;69466;55.948;37.484;2024-01-15T04:30:52;24.40;;;13.85;;
80136;SDS011;69466;55.948;37.484;2024-01-15T04:33:19;23.95;;;13.00;;
80136;SDS011;69466;55.948;37.484;2024-01-15T04:35:45;25.65;;;13.23;;
80136;SDS011;69466;55.948;37.484;2024-01-15T04:38:12;28.75;;;13.65;;
80136;SDS011;69466;55.948;37.484;2024-01-15T04:40:39;28.15;;;12.25;;
80136;SDS011;69466;55.948;37.484;2024-01-15T04:43:05;26.45;;;12.63;;
80136;SDS011;69466;55.948;37.484;2024-01-15T04:45:30;30.45;;;15.13;;
80136;SDS011;69466;55.948;37.484;2024-01-15T04:47:56;32.65;;;14.32;;
80136;SDS011;69466;55.948;37.484;2024-01-15T04:50:24;27.13;;;13.20;;
80136;SDS011;69466;55.948;37.484;2024-01-15T04:52:52;34.97;;;17.48;;
80136;SDS011;69466;55.948;37.484;2024-01-15T04:55:36;25.67;;;13.20;;
80136;SDS011;69466;55.948;37.484;2024-01-15T04:58:15;32.28;;;14.80;;
80136;SDS011;69466;55.948;37.484;2024-01-15T05:00:40;29.25;;;13.52;;
80136;SDS011;69466;55.948;37.484;2024-01-15T05:03:07;27.60;;;13.48;;
80136;SDS011;69466;55.948;37.484;2024-01-15T05:05:36;29.48;;;12.70;;
80136;SDS011;69466;55.948;37.484;2024-01-15T05:08:03;31.83;;;15.25;;
80136;SDS011;69466;55.948;37.484;2024-01-15T05:29:41;28.92;;;14.75;;
80136;SDS011;69466;55.948;37.484;2024-01-15T05:32:26;26.95;;;14.18;;
80136;SDS011;69466;55.948;37.484;2024-01-15T05:35:00;31.25;;;14.55;;
80136;SDS011;69466;55.948;37.484;2024-01-15T05:37:26;30.55;;;13.90;;
80136;SDS011;69466;55.948;37.484;2024-01-15T05:39:55;27.80;;;12.88;;
80136;SDS011;69466;55.948;37.484;2024-01-15T05:42:21;30.80;;;17.33;;
80136;SDS011;69466;55.948;37.484;2024-01-15T05:44:47;29.23;;;13.48;;
80136;SDS011;69466;55.948;37.484;2024-01-15T05:47:14;31.05;;;14.73;;
80136;SDS011;69466;55.948;37.484;2024-01-15T05:49:40;28.55;;;14.82;;
80136;SDS011;69466;55.948;37.484;2024-01-15T05:52:10;32.40;;;14.18;;
80136;SDS011;69466;55.948;37.484;2024-01-15T05:54:40;33.90;;;15.52;;
80136;SDS011;69466;55.948;37.484;2024-01-15T05:57:07;28.02;;;15.25;;
80136;SDS011;69466;55.948;37.484;2024-01-15T05:59:34;29.25;;;13.70;;
80136;SDS011;69466;55.948;37.484;2024-01-15T06:02:02;30.38;;;14.40;;
80136;SDS011;69466;55.948;37.484;2024-01-15T06:04:28;27.48;;;13.60;;
80136;SDS011;69466;55.948;37.484;2024-01-15T06:06:54;28.70;;;14.63;;
80136;SDS011;69466;55.948;37.484;2024-01-15T06:09:20;26.60;;;13.27;;
80136;SDS011;69466;55.948;37.484;2024-01-15T06:11:46;28.83;;;14.07;;
80136;SDS011;69466;55.948;37.484;2024-01-15T06:14:12;28.33;;;14.98;;
80136;SDS011;69466;55.948;37.484;2024-01-15T06:16:38;27.52;;;13.95;;
80136;SDS011;69466;55.948;37.484;2024-01-15T06:19:05;29.35;;;14.90;;
80136;SDS011;69466;55.948;37.484;2024-01-15T06:21:31;29.13;;;13.27;;
80136;SDS011;69466;55.948;37.484;2024-01-15T06:23:57;29.45;;;14.40;;
80136;SDS011;69466;55.948;37.484;2024-01-15T06:26:23;32.95;;;14.68;;
80136;SDS011;69466;55.948;37.484;2024-01-15T06:28:49;31.15;;;14.68;;
80136;SDS011;69466;55.948;37.484;2024-01-15T06:31:15;24.95;;;12.57;;
80136;SDS011;69466;55.948;37.484;2024-01-15T06:33:41;28.40;;;13.85;;
80136;SDS011;69466;55.948;37.484;2024-01-15T06:36:07;30.85;;;14.48;;
80136;SDS011;69466;55.948;37.484;2024-01-15T06:38:36;31.75;;;14.77;;
80136;SDS011;69466;55.948;37.484;2024-01-15T06:41:02;23.50;;;13.20;;
80136;SDS011;69466;55.948;37.484;2024-01-15T06:43:28;26.83;;;13.48;;
80136;SDS011;69466;55.948;37.484;2024-01-15T06:45:55;26.58;;;13.15;;
80136;SDS011;69466;55.948;37.484;2024-01-15T06:48:20;30.70;;;14.55;;
80136;SDS011;69466;55.948;37.484;2024-01-15T06:50:46;26.30;;;13.25;;
80136;SDS011;69466;55.948;37.484;2024-01-15T06:53:13;29.60;;;14.38;;
80136;SDS011;69466;55.948;37.484;2024-01-15T06:55:38;29.70;;;13.60;;
80136;SDS011;69466;55.948;37.484;2024-01-15T06:58:04;29.40;;;14.80;;
80136;SDS011;69466;55.948;37.484;2024-01-15T07:00:31;30.60;;;15.75;;
80136;SDS011;69466;55.948;37.484;2024-01-15T07:02:57;25.88;;;14.80;;
80136;SDS011;69466;55.948;37.484;2024-01-15T07:05:23;29.45;;;14.60;;
80136;SDS011;69466;55.948;37.484;2024-01-15T07:07:50;30.33;;;14.25;;
80136;SDS011;69466;55.948;37.484;2024-01-15T07:10:16;31.40;;;14.88;;
80136;SDS011;69466;55.948;37.484;2024-01-15T07:12:42;29.65;;;14.27;;
80136;SDS011;69466;55.948;37.484;2024-01-15T07:15:09;30.08;;;13.02;;
80136;SDS011;69466;55.948;37.484;2024-01-15T07:17:35;25.75;;;13.90;;
80136;SDS011;69466;55.948;37.484;2024-01-15T07:20:08;28.52;;;12.90;;
80136;SDS011;69466;55.948;37.484;2024-01-15T07:22:37;29.67;;;14.40;;
80136;SDS011;69466;55.948;37.484;2024-01-15T07:25:15;25.17;;;14.35;;
80136;SDS011;69466;55.948;37.484;2024-01-15T07:27:41;26.38;;;14.93;;
80136;SDS011;69466;55.948;37.484;2024-01-15T07:30:13;26.85;;;12.80;;
80136;SDS011;69466;55.948;37.484;2024-01-15T07:32:39;28.70;;;14.45;;
80136;SDS011;69466;55.948;37.484;2024-01-15T07:35:06;28.85;;;14.60;;
80136;SDS011;69466;55.948;37.484;2024-01-15T07:37:42;31.40;;;15.55;;
80136;SDS011;69466;55.948;37.484;2024-01-15T07:40:09;26.63;;;14.23;;
80136;SDS011;69466;55.948;37.484;2024-01-15T07:42:37;31.65;;;13.48;;
80136;SDS011;69466;55.948;37.484;2024-01-15T07:45:09;27.08;;;14.05;;
80136;SDS011;69466;55.948;37.484;2024-01-15T07:47:36;26.17;;;14.18;;
80136;SDS011;69466;55.948;37.484;2024-01-15T07:50:02;28.23;;;13.57;;
80136;SDS011;69466;55.948;37.484;2024-01-15T07:52:30;25.92;;;12.85;;
80136;SDS011;69466;55.948;37.484;2024-01-15T07:54:56;26.65;;;14.15;;
80136;SDS011;69466;55.948;37.484;2024-01-15T07:57:25;27.50;;;14.50;;
80136;SDS011;69466;55.948;37.484;2024-01-15T07:59:51;24.55;;;13.90;;
80136;SDS011;69466;55.948;37.484;2024-01-15T08:02:17;30.13;;;14.80;;
80136;SDS011;69466;55.948;37.484;2024-01-15T08:04:43;28.25;;;14.57;;
80136;SDS011;69466;55.948;37.484;2024-01-15T08:07:10;29.30;;;13.95;;
80136;SDS011;69466;55.948;37.484;2024-01-15T08:09:36;26.95;;;13.82;;
80136;SDS011;69466;55.948;37.484;2024-01-15T08:12:02;29.35;;;13.63;;
80136;SDS011;69466;55.948;37.484;2024-01-15T08:14:31;26.52;;;14.57;;
80136;SDS011;69466;55.948;37.484;2024-01-15T08:16:57;26.80;;;14.52;;
80136;SDS011;69466;55.948;37.484;2024-01-15T08:19:23;29.70;;;14.60;;
80136;SDS011;69466;55.948;37.484;2024-01-15T08:21:49;31.25;;;15.02;;
80136;SDS011;69466;55.948;37.484;2024-01-15T08:24:18;29.27;;;13.60;;
80136;SDS011;69466;55.948;37.484;2024-01-15T08:26:48;26.70;;;12.77;;
80136;SDS011;69466;55.948;37.484;2024-01-15T08:29:14;30.10;;;14.80;;
80136;SDS011;69466;55.948;37.484;2024-01-15T08:31:40;25.00;;;13.35;;
80136;SDS011;69466;55.948;37.484;2024-01-15T08:34:06;26.23;;;12.82;;
80136;SDS011;69466;55.948;37.484;2024-01-15T08:36:33;27.88;;;13.00;;
80136;SDS011;69466;55.948;37.484;2024-01-15T08:39:00;26.17;;;12.00;;
80136;SDS011;69466;55.948;37.484;2024-01-15T08:41:27;22.70;;;12.45;;
80136;SDS011;69466;55.948;37.484;2024-01-15T08:43:53;22.25;;;12.30;;
80136;SDS011;69466;55.948;37.484;2024-01-15T08:46:23;25.00;;;13.35;;
80136;SDS011;69466;55.948;37.484;2024-01-15T08:48:49;23.77;;;12.45;;
80136;SDS011;69466;55.948;37.484;2024-01-15T08:51:16;25.73;;;12.57;;
80136;SDS011;69466;55.948;37.484;2024-01-15T08:53:44;22.67;;;12.38;;
80136;SDS011;69466;55.948;37.484;2024-01-15T08:56:10;21.85;;;11.82;;
80136;SDS011;69466;55.948;37.484;2024-01-15T08:58:36;25.73;;;11.80;;
80136;SDS011;69466;55.948;37.484;2024-01-15T09:01:04;21.95;;;11.57;;
80136;SDS011;69466;55.948;37.484;2024-01-15T09:03:39;21.92;;;12.52;;
80136;SDS011;69466;55.948;37.484;2024-01-15T09:06:10;22.42;;;11.40;;
80136;SDS011;69466;55.948;37.484;2024-01-15T09:08:45;23.05;;;10.98;;
80136;SDS011;69466;55.948;37.484;2024-01-15T09:13:54;23.33;;;12.02;;
80136;SDS011;69466;55.948;37.484;2024-01-15T09:16:21;27.13;;;11.68;;
80136;SDS011;69466;55.948;37.484;2024-01-15T09:18:48;23.58;;;12.13;;
80136;SDS011;69466;55.948;37.484;2024-01-15T09:21:14;23.70;;;11.45;;
80136;SDS011;69466;55.948;37.484;2024-01-15T09:23:40;20.90;;;10.63;;
80136;SDS011;69466;55.948;37.484;2024-01-15T09:26:08;22.27;;;11.13;;
80136;SDS011;69466;55.948;37.484;2024-01-15T09:28:42;23.02;;;10.63;;
80136;SDS011;69466;55.948;37.484;2024-01-15T09:31:09;22.15;;;11.27;;
80136;SDS011;69466;55.948;37.484;2024-01-15T09:33:35;22.58;;;12.38;;
80136;SDS011;69466;55.948;37.484;2024-01-15T09:36:02;21.45;;;11.27;;
80136;SDS011;69466;55.948;37.484;2024-01-15T09:38:32;23.73;;;11.10;;
80136;SDS011;69466;55.948;37.484;2024-01-15T09:40:58;20.67;;;11.45;;
80136;SDS011;69466;55.948;37.484;2024-01-15T09:43:24;24.20;;;12.93;;
80136;SDS011;69466;55.948;37.484;2024-01-15T09:45:50;19.55;;;11.38;;
80136;SDS011;69466;55.948;37.484;2024-01-15T09:48:17;24.35;;;11.85;;
80136;SDS011;69466;55.948;37.484;2024-01-15T09:50:43;24.42;;;12.15;;
80136;SDS011;69466;55.948;37.484;2024-01-15T09:53:09;23.80;;;11.15;;
80136;SDS011;69466;55.948;37.484;2024-01-15T09:55:36;22.23;;;11.40;;
80136;SDS011;69466;55.948;37.484;2024-01-15T09:58:03;21.98;;;11.50;;
80136;SDS011;69466;55.948;37.484;2024-01-15T10:00:29;22.65;;;11.95;;
80136;SDS011;69466;55.948;37.484;2024-01-15T10:02:58;19.60;;;10.98;;
80136;SDS011;69466;55.948;37.484;2024-01-15T10:05:26;21.55;;;11.45;;
80136;SDS011;69466;55.948;37.484;2024-01-15T10:07:53;22.70;;;11.60;;
80136;SDS011;69466;55.948;37.484;2024-01-15T10:10:20;19.95;;;10.80;;
80136;SDS011;69466;55.948;37.484;2024-01-15T10:12:48;28.88;;;13.75;;
80136;SDS011;69466;55.948;37.484;2024-01-15T10:15:17;20.42;;;10.98;;
80136;SDS011;69466;55.948;37.484;2024-01-15T10:17:43;22.35;;;11.90;;
80136;SDS011;69466;55.948;37.484;2024-01-15T10:20:10;22.38;;;11.77;;
80136;SDS011;69466;55.948;37.484;2024-01-15T10:22:41;22.20;;;11.90;;
80136;SDS011;69466;55.948;37.484;2024-01-15T10:25:15;24.83;;;12.65;;
80136;SDS011;69466;55.948;37.484;2024-01-15T10:27:41;20.63;;;11.45;;
80136;SDS011;69466;55.948;37.484;2024-01-15T10:30:10;22.35;;;12.38;;
80136;SDS011;69466;55.948;37.484;2024-01-15T10:32:36;19.17;;;11.00;;
80136;SDS011;69466;55.948;37.484;2024-01-15T10:35:03;24.08;;;12.10;;
80136;SDS011;69466;55.948;37.484;2024-01-15T10:37:32;21.58;;;11.57;;
80136;SDS011;69466;55.948;37.484;2024-01-15T10:40:01;22.38;;;12.20;;
80136;SDS011;69466;55.948;37.484;2024-01-15T10:42:30;22.55;;;11.35;;
80136;SDS011;69466;55.948;37.484;2024-01-15T10:44:56;23.10;;;11.50;;
80136;SDS011;69466;55.948;37.484;2024-01-15T10:47:23;24.40;;;12.00;;
80136;SDS011;69466;55.948;37.484;2024-01-15T10:49:49;21.35;;;11.35;;
80136;SDS011;69466;55.948;37.484;2024-01-15T10:52:15;18.50;;;10.32;;
80136;SDS011;69466;55.948;37.484;2024-01-15T10:54:41;22.92;;;10.52;;
80136;SDS011;69466;55.948;37.484;2024-01-15T10:57:08;18.30;;;11.00;;
80136;SDS011;69466;55.948;37.484;2024-01-15T10:59:35;23.40;;;11.88;;
80136;SDS011;69466;55.948;37.484;2024-01-15T11:02:01;24.45;;;10.88;;
80136;SDS011;69466;55.948;37.484;2024-01-15T11:04:28;23.02;;;12.75;;
80136;SDS011;69466;55.948;37.484;2024-01-15T11:06:57;25.20;;;13.70;;
80136;SDS011;69466;55.948;37.484;2024-01-15T11:09:23;21.70;;;12.02;;
80136;SDS011;69466;55.948;37.484;2024-01-15T11:11:52;23.67;;;11.00;;
80136;SDS011;69466;55.948;37.484;2024-01-15T11:17:01;20.52;;;9.95;;
80136;SDS011;69466;55.948;37.484;2024-01-15T11:25:03;23.35;;;12.10;;
80136;SDS011;69466;55.948;37.484;2024-01-15T11:27:45;21.58;;;11.85;;
80136;SDS011;69466;55.948;37.484;2024-01-15T11:30:25;21.92;;;11.73;;
80136;SDS011;69466;55.948;37.484;2024-01-15T11:32:52;22.58;;;11.85;;
80136;SDS011;69466;55.948;37.484;2024-01-15T11:35:21;21.50;;;9.77;;
80136;SDS011;69466;55.948;37.484;2024-01-15T11:43:05;24.40;;;10.35;;
80136;SDS011;69466;55.948;37.484;2024-01-15T11:45:34;25.45;;;11.93;;
80136;SDS011;69466;55.948;37.484;2024-01-15T11:48:23;19.90;;;11.05;;
80136;SDS011;69466;55.948;37.484;2024-01-15T11:51:06;17.30;;;8.88;;
80136;SDS011;69466;55.948;37.484;2024-01-15T11:53:38;24.70;;;11.90;;
80136;SDS011;69466;55.948;37.484;2024-01-15T11:56:17;23.45;;;12.38;;
80136;SDS011;69466;55.948;37.484;2024-01-15T11:58:48;21.80;;;11.68;;
80136;SDS011;69466;55.948;37.484;2024-01-15T12:01:15;22.80;;;12.40;;
80136;SDS011;69466;55.948;37.484;2024-01-15T12:03:42;23.60;;;12.63;;
80136;SDS011;69466;55.948;37.484;2024-01-15T12:06:12;22.92;;;11.32;;
80136;SDS011;69466;55.948;37.484;2024-01-15T12:08:40;21.02;;;12.13;;
80136;SDS011;69466;55.948;37.484;2024-01-15T12:11:07;20.95;;;11.30;;
80136;SDS011;69466;55.948;37.484;2024-01-15T12:13:39;27.65;;;12.80;;
80136;SDS011;69466;55.948;37.484;2024-01-15T12:16:05;23.65;;;11.13;;
80136;SDS011;69466;55.948;37.484;2024-01-15T12:18:32;24.83;;;11.60;;
80136;SDS011;69466;55.948;37.484;2024-01-15T12:20:58;24.00;;;11.75;;
80136;SDS011;69466;55.948;37.484;2024-01-15T12:23:29;26.73;;;12.95;;
80136;SDS011;69466;55.948;37.484;2024-01-15T12:26:03;23.15;;;11.35;;
80136;SDS011;69466;55.948;37.484;2024-01-15T12:31:18;22.92;;;12.15;;
80136;SDS011;69466;55.948;37.484;2024-01-15T12:33:44;21.58;;;11.50;;
80136;SDS011;69466;55.948;37.484;2024-01-15T12:36:12;25.67;;;12.35;;
80136;SDS011;69466;55.948;37.484;2024-01-15T12:38:40;24.85;;;12.48;;
80136;SDS011;69466;55.948;37.484;2024-01-15T12:41:10;26.70;;;12.93;;
80136;SDS011;69466;55.948;37.484;2024-01-15T12:43:43;21.75;;;11.43;;
80136;SDS011;69466;55.948;37.484;2024-01-15T12:46:12;23.38;;;11.43;;
80136;SDS011;69466;55.948;37.484;2024-01-15T12:48:39;22.13;;;11.32;;
80136;SDS011;69466;55.948;37.484;2024-01-15T12:51:07;24.23;;;12.43;;
80136;SDS011;69466;55.948;37.484;2024-01-15T12:53:59;23.63;;;12.18;;
80136;SDS011;69466;55.948;37.484;2024-01-15T12:56:31;22.13;;;12.73;;
80136;SDS011;69466;55.948;37.484;2024-01-15T12:59:03;26.67;;;14.18;;
80136;SDS011;69466;55.948;37.484;2024-01-15T13:01:38;27.85;;;12.80;;
80136;SDS011;69466;55.948;37.484;2024-01-15T13:04:04;27.75;;;13.48;;
80136;SDS011;69466;55.948;37.484;2024-01-15T13:06:35;27.73;;;12.35;;
80136;SDS011;69466;55.948;37.484;2024-01-15T13:09:03;26.50;;;12.57;;
80136;SDS011;69466;55.948;37.484;2024-01-15T13:11:37;25.42;;;13.57;;
80136;SDS011;69466;55.948;37.484;2024-01-15T13:14:03;22.95;;;12.25;;
80136;SDS011;69466;55.948;37.484;2024-01-15T13:16:30;28.45;;;12.82;;
80136;SDS011;69466;55.948;37.484;2024-01-15T13:18:56;24.05;;;12.18;;
80136;SDS011;69466;55.948;37.484;2024-01-15T13:21:22;26.70;;;12.18;;
80136;SDS011;69466;55.948;37.484;2024-01-15T13:23:50;23.92;;;11.80;;
80136;SDS011;69466;55.948;37.484;2024-01-15T13:26:16;24.88;;;12.32;;
80136;SDS011;69466;55.948;37.484;2024-01-15T13:28:44;26.05;;;12.55;;
80136;SDS011;69466;55.948;37.484;2024-01-15T13:31:11;23.77;;;11.60;;
80136;SDS011;69466;55.948;37.484;2024-01-15T13:33:37;25.98;;;12.13;;
80136;SDS011;69466;55.948;37.484;2024-01-15T13:36:04;23.83;;;12.23;;
80136;SDS011;69466;55.948;37.484;2024-01-15T13:38:34;25.20;;;12.95;;
80136;SDS011;69466;55.948;37.484;2024-01-15T13:41:04;24.75;;;11.52;;
80136;SDS011;69466;55.948;37.484;2024-01-15T13:43:31;26.50;;;13.05;;
80136;SDS011;69466;55.948;37.484;2024-01-15T13:45:59;24.75;;;12.82;;
80136;SDS011;69466;55.948;37.484;2024-01-15T13:48:26;30.52;;;14.02;;
80136;SDS011;69466;55.948;37.484;2024-01-15T13:51:03;22.30;;;12.43;;
80136;SDS011;69466;55.948;37.484;2024-01-15T13:53:49;28.23;;;13.02;;
80136;SDS011;69466;55.948;37.484;2024-01-15T13:56:18;25.60;;;14.15;;
80136;SDS011;69466;55.948;37.484;2024-01-15T13:58:45;27.08;;;13.15;;
80136;SDS011;69466;55.948;37.484;2024-01-15T14:01:11;24.90;;;12.68;;
80136;SDS011;69466;55.948;37.484;2024-01-15T14:03:39;24.60;;;12.52;;
80136;SDS011;69466;55.948;37.484;2024-01-15T14:06:05;23.83;;;12.35;;
80136;SDS011;69466;55.948;37.484;2024-01-15T14:08:37;21.73;;;11.93;;
80136;SDS011;69466;55.948;37.484;2024-01-15T14:11:04;26.63;;;13.95;;
80136;SDS011;69466;55.948;37.484;2024-01-15T14:13:33;24.08;;;13.82;;
80136;SDS011;69466;55.948;37.484;2024-01-15T14:16:00;25.58;;;13.95;;
80136;SDS011;69466;55.948;37.484;2024-01-15T14:18:26;23.80;;;12.65;;
80136;SDS011;69466;55.948;37.484;2024-01-15T14:20:55;25.13;;;13.77;;
80136;SDS011;69466;55.948;37.484;2024-01-15T14:23:21;24.08;;;14.18;;
80136;SDS011;69466;55.948;37.484;2024-01-15T14:25:50;26.90;;;13.63;;
80136;SDS011;69466;55.948;37.484;2024-01-15T14:28:18;26.10;;;12.80;;
80136;SDS011;69466;55.948;37.484;2024-01-15T14:30:44;26.13;;;13.18;;
80136;SDS011;69466;55.948;37.484;2024-01-15T14:33:10;25.00;;;13.43;;
80136;SDS011;69466;55.948;37.484;2024-01-15T14:35:36;26.50;;;13.15;;
80136;SDS011;69466;55.948;37.484;2024-01-15T14:38:03;20.77;;;12.05;;
80136;SDS011;69466;55.948;37.484;2024-01-15T14:40:32;26.95;;;13.50;;
80136;SDS011;69466;55.948;37.484;2024-01-15T14:42:58;24.73;;;13.80;;
80136;SDS011;69466;55.948;37.484;2024-01-15T14:45:24;23.52;;;12.23;;
80136;SDS011;69466;55.948;37.484;2024-01-15T14:47:53;23.60;;;12.18;;
80136;SDS011;69466;55.948;37.484;2024-01-15T14:50:22;26.73;;;14.07;;
80136;SDS011;69466;55.948;37.484;2024-01-15T14:52:48;25.27;;;12.98;;